createdAt,value
2018-09-26T00:00:24.696Z,7.36
2018-09-26T00:03:56.071Z,7.42
2018-09-26T00:06:24.429Z,7.41
2018-09-26T00:08:52.781Z,7.39
2018-09-26T00:11:21.135Z,7.38
2018-09-26T00:13:49.465Z,7.33
2018-09-26T00:16:17.855Z,7.29
2018-09-26T00:18:46.250Z,7.25
2018-09-26T00:21:14.705Z,7.27
2018-09-26T00:23:43.023Z,7.32
2018-09-26T00:26:11.355Z,7.25
2018-09-26T00:28:40.100Z,7.26
2018-09-26T00:31:08.464Z,7.24
2018-09-26T00:33:36.841Z,7.22
2018-09-26T00:36:05.397Z,7.20
2018-09-26T00:38:33.594Z,7.22
2018-09-26T00:41:01.942Z,7.30
2018-09-26T00:43:30.257Z,7.23
2018-09-26T00:45:58.604Z,7.28
2018-09-26T00:48:26.934Z,7.22
2018-09-26T00:50:55.252Z,7.25
2018-09-26T00:53:23.571Z,7.27
2018-09-26T00:55:51.913Z,7.26
2018-09-26T00:58:20.258Z,7.29
2018-09-26T01:00:48.591Z,7.25
2018-09-26T01:03:16.943Z,7.24
2018-09-26T01:05:45.257Z,7.19
2018-09-26T01:08:13.605Z,7.21
2018-09-26T01:10:41.932Z,7.23
2018-09-26T01:13:10.251Z,7.17
2018-09-26T01:15:38.558Z,7.10
2018-09-26T01:18:07.172Z,7.10
2018-09-26T01:20:35.596Z,7.09
2018-09-26T01:23:03.950Z,7.14
2018-09-26T01:25:32.280Z,7.10
2018-09-26T01:28:00.608Z,7.07
2018-09-26T01:30:28.938Z,7.07
2018-09-26T01:32:57.259Z,7.09
2018-09-26T01:35:25.575Z,7.08
2018-09-26T01:37:53.898Z,7.06
2018-09-26T01:40:22.222Z,7.05
2018-09-26T01:42:50.573Z,7.05
2018-09-26T01:45:18.905Z,7.05
2018-09-26T01:47:47.252Z,7.07
2018-09-26T01:50:15.580Z,7.03
2018-09-26T01:52:43.909Z,7.06
2018-09-26T01:55:12.249Z,7.04
2018-09-26T01:57:40.608Z,7.02
2018-09-26T02:00:09.024Z,6.97
2018-09-26T02:02:37.373Z,6.91
2018-09-26T02:05:05.710Z,6.96
2018-09-26T02:07:34.040Z,6.99
2018-09-26T02:10:02.401Z,6.96
2018-09-26T02:12:30.745Z,6.97
2018-09-26T02:14:59.077Z,6.93
2018-09-26T02:17:27.405Z,6.93
2018-09-26T02:19:55.732Z,6.97
2018-09-26T02:22:24.060Z,6.95
2018-09-26T02:24:52.401Z,6.93
2018-09-26T02:27:20.740Z,6.92
2018-09-26T02:29:49.115Z,6.91
2018-09-26T02:32:17.446Z,6.93
2018-09-26T02:34:45.770Z,6.92
2018-09-26T02:37:14.097Z,6.89
2018-09-26T02:39:42.451Z,6.86
2018-09-26T02:42:10.789Z,6.83
2018-09-26T02:44:39.116Z,6.88
2018-09-26T02:47:07.447Z,6.84
2018-09-26T02:49:36.604Z,6.84
2018-09-26T02:52:04.942Z,6.77
2018-09-26T02:54:33.250Z,6.79
2018-09-26T02:57:01.608Z,6.74
2018-09-26T02:59:29.923Z,6.83
2018-09-26T03:01:58.374Z,6.81
2018-09-26T03:04:26.716Z,6.72
2018-09-26T03:06:55.073Z,6.73
2018-09-26T03:09:23.410Z,6.69
2018-09-26T03:11:51.736Z,6.67
2018-09-26T03:14:20.072Z,6.60
2018-09-26T03:16:48.401Z,6.62
2018-09-26T03:19:16.719Z,6.57
2018-09-26T03:21:45.063Z,6.57
2018-09-26T03:24:13.404Z,6.56
2018-09-26T03:26:41.754Z,6.64
2018-09-26T03:29:10.128Z,6.51
2018-09-26T03:31:38.452Z,6.56
2018-09-26T03:34:07.092Z,6.50
2018-09-26T03:36:35.403Z,6.54
2018-09-26T03:39:05.024Z,6.54
2018-09-26T03:41:33.356Z,6.59
2018-09-26T03:44:01.694Z,6.59
2018-09-26T03:46:30.047Z,6.52
2018-09-26T03:48:58.372Z,6.53
2018-09-26T03:51:26.724Z,6.56
2018-09-26T03:53:55.084Z,6.53
2018-09-26T03:56:23.409Z,6.56
2018-09-26T03:58:51.763Z,6.58
2018-09-26T04:01:20.116Z,6.59
2018-09-26T04:03:48.447Z,6.59
2018-09-26T04:06:16.786Z,6.59
2018-09-26T04:08:45.137Z,6.61
2018-09-26T04:11:13.455Z,6.62
2018-09-26T04:13:41.796Z,6.62
2018-09-26T04:16:10.150Z,6.59
2018-09-26T04:18:38.476Z,6.62
2018-09-26T04:21:06.947Z,6.59
2018-09-26T04:23:35.277Z,6.63
2018-09-26T04:26:03.716Z,6.59
2018-09-26T04:28:32.035Z,6.57
2018-09-26T04:31:00.356Z,6.57
2018-09-26T04:33:29.314Z,6.55
2018-09-26T04:35:57.611Z,6.56
2018-09-26T04:38:25.967Z,6.55
2018-09-26T04:40:54.287Z,6.55
2018-09-26T04:43:22.611Z,6.51
2018-09-26T04:45:50.966Z,6.55
2018-09-26T04:48:19.305Z,6.54
2018-09-26T04:50:47.705Z,6.52
2018-09-26T04:53:16.015Z,6.52
2018-09-26T04:55:44.378Z,6.57
2018-09-26T04:58:12.766Z,6.61
2018-09-26T05:00:41.086Z,6.62
2018-09-26T05:03:09.429Z,6.65
2018-09-26T05:05:37.779Z,6.62
2018-09-26T05:08:06.391Z,6.66
2018-09-26T05:10:34.744Z,6.67
2018-09-26T05:13:03.699Z,6.62
2018-09-26T05:15:32.055Z,6.68
2018-09-26T05:18:00.400Z,6.67
2018-09-26T05:20:28.810Z,6.70
2018-09-26T05:22:57.141Z,6.71
2018-09-26T05:25:25.474Z,6.74
2018-09-26T05:27:53.808Z,6.74
2018-09-26T05:30:22.191Z,6.74
2018-09-26T05:32:50.553Z,6.75
2018-09-26T05:35:18.874Z,6.80
2018-09-26T05:37:47.224Z,6.74
2018-09-26T05:40:16.039Z,6.86
2018-09-26T05:42:44.455Z,6.91
2018-09-26T05:45:12.777Z,6.90
2018-09-26T05:47:41.141Z,7.02
2018-09-26T05:50:09.483Z,7.03
2018-09-26T05:52:37.815Z,7.07
2018-09-26T05:55:06.151Z,7.11
2018-09-26T05:57:34.484Z,7.13
2018-09-26T06:00:02.833Z,7.16
2018-09-26T06:02:31.140Z,7.26
2018-09-26T06:04:59.488Z,7.36
2018-09-26T06:07:27.900Z,7.41
2018-09-26T06:09:56.250Z,7.48
2018-09-26T06:12:24.555Z,7.50
2018-09-26T06:14:52.903Z,7.56
2018-09-26T06:17:21.233Z,7.64
2018-09-26T06:19:49.594Z,7.73
2018-09-26T06:22:17.926Z,7.79
2018-09-26T06:24:46.344Z,7.82
2018-09-26T06:27:14.595Z,7.86
2018-09-26T06:29:42.931Z,8.01
2018-09-26T06:32:11.278Z,8.11
2018-09-26T06:34:39.612Z,8.20
2018-09-26T06:37:07.952Z,8.33
2018-09-26T06:39:36.276Z,8.44
2018-09-26T06:42:04.665Z,8.63
2018-09-26T06:44:33.007Z,8.71
2018-09-26T06:47:01.308Z,8.75
2018-09-26T06:49:29.685Z,8.82
2018-09-26T06:51:58.011Z,8.87
2018-09-26T06:54:26.344Z,8.90
2018-09-26T06:56:54.774Z,8.95
2018-09-26T06:59:23.082Z,9.07
2018-09-26T07:01:51.606Z,9.08
2018-09-26T07:04:19.929Z,9.25
2018-09-26T07:06:48.254Z,9.31
2018-09-26T07:09:16.596Z,9.37
2018-09-26T07:11:44.943Z,9.62
2018-09-26T07:14:13.266Z,9.73
2018-09-26T07:16:41.632Z,9.89
2018-09-26T07:19:09.972Z,10.03
2018-09-26T07:21:38.325Z,10.25
2018-09-26T07:24:06.888Z,10.25
2018-09-26T07:26:35.217Z,10.57
2018-09-26T07:29:03.565Z,10.70
2018-09-26T07:31:32.215Z,10.82
2018-09-26T07:34:00.466Z,10.88
2018-09-26T07:36:28.808Z,11.06
2018-09-26T07:38:57.151Z,11.47
2018-09-26T07:41:25.493Z,11.77
2018-09-26T07:43:53.819Z,12.14
2018-09-26T07:46:22.142Z,12.38
2018-09-26T07:48:50.496Z,12.43
2018-09-26T07:51:19.389Z,12.46
2018-09-26T07:53:47.771Z,12.58
2018-09-26T07:56:16.097Z,13.08
2018-09-26T07:58:44.421Z,13.36
2018-09-26T08:01:12.772Z,13.55
2018-09-26T08:03:41.133Z,13.88
2018-09-26T08:06:09.834Z,14.20
2018-09-26T08:08:38.621Z,14.08
2018-09-26T08:11:06.974Z,14.03
2018-09-26T08:13:35.312Z,14.03
2018-09-26T08:16:03.658Z,13.91
2018-09-26T08:18:32.087Z,13.85
2018-09-26T08:21:00.407Z,14.07
2018-09-26T08:23:28.756Z,14.39
2018-09-26T08:25:57.089Z,14.65
2018-09-26T08:28:25.422Z,14.89
2018-09-26T08:37:53.833Z,16.06
2018-09-26T08:40:22.530Z,16.44
2018-09-26T08:42:50.883Z,16.79
2018-09-26T08:45:19.226Z,17.11
2018-09-26T08:47:47.589Z,17.06
2018-09-26T08:50:15.930Z,17.09
2018-09-26T08:52:44.424Z,17.21
2018-09-26T08:55:12.786Z,17.21
2018-09-26T08:57:41.118Z,17.17
2018-09-26T09:00:09.516Z,17.14
2018-09-26T09:02:37.867Z,17.18
2018-09-26T09:05:06.305Z,16.76
2018-09-26T09:07:34.683Z,16.60
2018-09-26T09:10:03.148Z,16.32
2018-09-26T09:12:31.459Z,16.27
2018-09-26T09:14:59.801Z,16.47
2018-09-26T09:17:28.412Z,16.23
2018-09-26T09:19:56.724Z,16.20
2018-09-26T09:22:25.060Z,16.43
2018-09-26T09:24:53.370Z,16.40
2018-09-26T09:27:21.749Z,16.38
2018-09-26T09:29:50.084Z,16.61
2018-09-26T09:32:18.500Z,16.94
2018-09-26T09:34:46.840Z,16.46
2018-09-26T09:37:15.427Z,17.13
2018-09-26T09:39:43.806Z,17.36
2018-09-26T09:42:12.240Z,17.49
2018-09-26T09:44:40.593Z,17.79
2018-09-26T09:47:08.954Z,18.22
2018-09-26T09:49:37.627Z,18.09
2018-09-26T09:52:06.004Z,18.81
2018-09-26T09:54:34.398Z,19.55
2018-09-26T09:57:03.157Z,19.83
2018-09-26T09:59:31.602Z,20.64
2018-09-26T10:02:00.047Z,21.54
2018-09-26T10:04:28.494Z,21.28
2018-09-26T10:06:56.829Z,21.41
2018-09-26T10:09:25.187Z,22.53
2018-09-26T10:11:53.654Z,23.24
2018-09-26T10:14:22.147Z,23.37
2018-09-26T10:16:50.993Z,22.74
2018-09-26T10:19:19.349Z,22.18
2018-09-26T10:21:47.917Z,23.36
2018-09-26T10:24:17.728Z,23.34
2018-09-26T10:26:46.097Z,23.09
2018-09-26T10:29:14.472Z,23.45
2018-09-26T10:31:43.328Z,24.23
2018-09-26T10:34:11.729Z,24.10
2018-09-26T10:36:40.165Z,24.17
2018-09-26T10:39:09.719Z,23.56
2018-09-26T10:41:38.112Z,22.39
2018-09-26T10:44:06.950Z,22.48
2018-09-26T10:46:35.863Z,22.44
2018-09-26T10:49:04.229Z,21.93
2018-09-26T10:51:32.613Z,21.25
2018-09-26T10:54:00.944Z,20.66
2018-09-26T10:56:29.353Z,20.68
2018-09-26T10:58:57.695Z,20.53
2018-09-26T11:01:26.069Z,19.94
2018-09-26T11:03:54.460Z,20.22
2018-09-26T11:06:22.872Z,19.72
2018-09-26T11:08:51.224Z,19.33
2018-09-26T11:11:19.649Z,19.49
2018-09-26T11:13:48.012Z,19.05
2018-09-26T11:16:16.544Z,19.04
2018-09-26T11:18:45.011Z,18.67
2018-09-26T11:21:13.415Z,18.58
2018-09-26T11:23:41.764Z,18.68
2018-09-26T11:26:10.168Z,18.48
2018-09-26T11:28:38.526Z,18.43
2018-09-26T11:31:07.112Z,18.69
2018-09-26T11:33:35.534Z,18.59
2018-09-26T11:36:03.909Z,18.41
2018-09-26T11:38:32.251Z,17.96
2018-09-26T11:41:00.694Z,18.17
2018-09-26T11:43:29.045Z,18.05
2018-09-26T11:45:57.452Z,17.96
2018-09-26T11:48:25.821Z,17.72
2018-09-26T11:50:54.188Z,17.51
2018-09-26T11:53:22.616Z,17.50
2018-09-26T11:55:50.976Z,17.43
2018-09-26T11:58:19.369Z,17.64
2018-09-26T12:00:47.724Z,17.72
2018-09-26T12:03:16.254Z,17.43
2018-09-26T12:05:44.748Z,17.54
2018-09-26T12:08:13.085Z,17.28
2018-09-26T12:10:41.475Z,17.34
2018-09-26T12:13:10.035Z,17.48
2018-09-26T12:15:38.375Z,17.51
2018-09-26T12:18:06.799Z,17.42
2018-09-26T12:20:35.175Z,17.60
2018-09-26T12:23:03.617Z,17.50
2018-09-26T12:25:31.972Z,17.44
2018-09-26T12:28:00.762Z,17.18
2018-09-26T12:30:29.201Z,17.32
2018-09-26T12:32:58.612Z,17.47
2018-09-26T12:35:27.329Z,17.47
2018-09-26T12:37:55.904Z,17.42
2018-09-26T12:40:24.288Z,17.40
2018-09-26T12:42:52.978Z,17.47
2018-09-26T12:45:21.449Z,17.53
2018-09-26T12:47:50.419Z,17.40
2018-09-26T12:50:19.408Z,17.53
2018-09-26T12:52:47.915Z,17.42
2018-09-26T12:55:16.439Z,17.45
2018-09-26T12:57:44.959Z,17.45
2018-09-26T13:00:13.396Z,17.52
2018-09-26T13:02:43.945Z,17.49
2018-09-26T13:05:12.534Z,17.31
2018-09-26T13:07:41.198Z,17.39
2018-09-26T13:10:09.689Z,17.40
2018-09-26T13:12:38.171Z,17.48
2018-09-26T13:15:07.231Z,17.51
2018-09-26T13:17:37.768Z,17.56
2018-09-26T13:20:08.272Z,17.47
2018-09-26T13:22:38.660Z,17.49
2018-09-26T13:25:09.186Z,17.52
2018-09-26T13:27:40.133Z,17.54
2018-09-26T13:30:10.625Z,17.60
2018-09-26T13:32:40.600Z,17.59
2018-09-26T13:35:10.744Z,17.64
2018-09-26T13:37:41.223Z,17.53
2018-09-26T13:40:11.866Z,17.48
2018-09-26T13:42:42.098Z,17.50
2018-09-26T13:45:13.547Z,17.37
2018-09-26T13:47:43.661Z,17.27
2018-09-26T13:50:13.856Z,17.33
2018-09-26T13:52:43.802Z,17.37
2018-09-26T13:55:13.674Z,17.40
2018-09-26T13:57:43.845Z,17.40
2018-09-26T14:00:16.853Z,17.46
2018-09-26T14:02:48.285Z,17.32
2018-09-26T14:05:18.446Z,17.31
2018-09-26T14:07:49.312Z,17.37
2018-09-26T14:10:19.439Z,17.28
2018-09-26T14:12:49.634Z,17.22
2018-09-26T14:15:18.993Z,17.24
2018-09-26T14:17:49.155Z,17.21
2018-09-26T14:20:35.022Z,17.27
2018-09-26T14:23:06.447Z,17.39
2018-09-26T14:25:37.726Z,17.44
2018-09-26T14:28:08.353Z,17.47
2018-09-26T14:30:39.406Z,17.48
2018-09-26T14:33:09.478Z,17.43
2018-09-26T14:35:39.794Z,17.35
2018-09-26T14:38:10.316Z,17.31
2018-09-26T14:40:40.884Z,17.28
2018-09-26T14:43:11.137Z,17.33
2018-09-26T14:45:41.994Z,17.31
2018-09-26T14:48:12.418Z,17.28
2018-09-26T14:50:43.002Z,17.23
2018-09-26T14:53:13.463Z,17.31
2018-09-26T14:55:43.616Z,17.32
2018-09-26T14:58:14.601Z,17.33
2018-09-26T15:00:45.394Z,17.34
2018-09-26T15:03:16.124Z,17.36
2018-09-26T15:05:46.216Z,17.28
2018-09-26T15:08:17.373Z,17.27
2018-09-26T15:10:52.678Z,17.25
2018-09-26T15:13:23.628Z,17.24
2018-09-26T15:15:53.640Z,17.24
2018-09-26T15:18:24.480Z,17.22
2018-09-26T15:20:55.791Z,17.13
2018-09-26T15:23:26.553Z,17.15
2018-09-26T15:25:58.782Z,17.11
2018-09-26T15:28:29.300Z,17.13
2018-09-26T15:30:59.826Z,17.10
2018-09-26T15:33:31.661Z,17.05
2018-09-26T15:36:02.824Z,17.01
2018-09-26T15:38:33.651Z,16.99
2018-09-26T15:41:04.064Z,17.00
2018-09-26T15:43:34.553Z,16.95
2018-09-26T15:46:05.323Z,16.96
2018-09-26T15:48:36.317Z,16.90
2018-09-26T15:51:06.394Z,16.88
2018-09-26T15:53:36.991Z,16.87
2018-09-26T15:56:07.980Z,16.81
2018-09-26T15:58:38.754Z,16.73
2018-09-26T16:01:10.857Z,16.70
2018-09-26T16:03:41.262Z,16.70
2018-09-26T16:06:11.537Z,16.68
2018-09-26T16:08:42.224Z,16.65
2018-09-26T16:11:12.326Z,16.64
2018-09-26T16:13:43.139Z,16.65
2018-09-26T16:16:14.401Z,16.61
2018-09-26T16:18:44.891Z,16.59
2018-09-26T16:21:16.151Z,16.58
2018-09-26T16:23:46.017Z,16.53
2018-09-26T16:26:16.464Z,16.47
2018-09-26T16:28:46.295Z,16.44
2018-09-26T16:31:16.976Z,16.41
2018-09-26T16:33:47.644Z,16.39
2018-09-26T16:36:17.474Z,16.39
2018-09-26T16:38:47.417Z,16.34
2018-09-26T16:41:18.299Z,16.29
2018-09-26T16:43:48.688Z,16.24
2018-09-26T16:46:18.572Z,16.23
2018-09-26T16:48:51.706Z,16.17
2018-09-26T16:51:21.760Z,16.12
2018-09-26T16:53:52.493Z,16.07
2018-09-26T16:56:24.347Z,15.98
2018-09-26T16:58:55.548Z,15.98
2018-09-26T17:01:25.514Z,15.92
2018-09-26T17:03:56.745Z,15.91
2018-09-26T17:06:27.657Z,15.84
2018-09-26T17:08:59.130Z,15.83
2018-09-26T17:11:29.618Z,15.80
2018-09-26T17:13:59.782Z,15.75
2018-09-26T17:16:30.880Z,15.72
2018-09-26T17:19:02.079Z,15.72
2018-09-26T17:21:34.289Z,15.69
2018-09-26T17:24:05.213Z,15.69
2018-09-26T17:26:36.188Z,15.69
2018-09-26T17:29:06.172Z,15.68
2018-09-26T17:31:36.514Z,15.66
2018-09-26T17:34:08.398Z,15.69
2018-09-26T17:36:38.729Z,15.69
2018-09-26T17:39:10.124Z,15.70
2018-09-26T17:41:42.436Z,15.72
2018-09-26T17:44:14.183Z,15.72
2018-09-26T17:46:44.965Z,15.73
2018-09-26T17:49:16.171Z,15.72
2018-09-26T17:51:45.964Z,15.74
2018-09-26T17:54:16.337Z,15.74
2018-09-26T17:56:46.287Z,15.74
2018-09-26T17:59:18.156Z,15.73
2018-09-26T18:01:49.456Z,15.76
2018-09-26T18:04:20.238Z,15.75
2018-09-26T18:06:50.476Z,15.75
2018-09-26T18:09:21.349Z,15.75
2018-09-26T18:11:52.182Z,15.78
2018-09-26T18:14:24.247Z,15.77
2018-09-26T18:16:54.266Z,15.82
2018-09-26T18:19:24.787Z,15.79
2018-09-26T18:21:55.573Z,15.78
2018-09-26T18:24:27.673Z,15.79
2018-09-26T18:27:00.635Z,15.81
2018-09-26T18:29:30.868Z,15.79
2018-09-26T18:32:00.760Z,15.81
2018-09-26T18:34:30.606Z,15.80
2018-09-26T18:37:03.435Z,15.80
2018-09-26T18:39:52.629Z,15.82
2018-09-26T18:42:24.963Z,15.79
2018-09-26T18:44:55.407Z,15.82
2018-09-26T18:47:25.429Z,15.81
2018-09-26T18:49:58.868Z,15.82
2018-09-26T18:52:28.992Z,15.81
2018-09-26T18:54:59.196Z,15.80
2018-09-26T18:57:30.255Z,15.81
2018-09-26T19:00:01.676Z,15.79
2018-09-26T19:02:32.699Z,15.78
2018-09-26T19:05:02.637Z,15.76
2018-09-26T19:07:33.933Z,15.75
2018-09-26T19:10:04.690Z,15.74
2018-09-26T19:12:35.598Z,15.71
2018-09-26T19:15:06.427Z,15.73
2018-09-26T19:17:37.107Z,15.71
2018-09-26T19:20:07.063Z,15.71
2018-09-26T19:22:37.042Z,15.70
2018-09-26T19:25:07.117Z,15.69
2018-09-26T19:27:37.359Z,15.73
2018-09-26T19:30:08.360Z,15.70
2018-09-26T19:32:40.240Z,15.71
2018-09-26T19:35:10.407Z,15.74
2018-09-26T19:37:41.011Z,15.74
2018-09-26T19:40:12.213Z,15.76
2018-09-26T19:42:43.185Z,15.75
2018-09-26T19:45:13.215Z,15.75
2018-09-26T19:47:43.383Z,15.79
2018-09-26T19:50:13.883Z,15.79
2018-09-26T19:52:43.950Z,15.80
2018-09-26T19:55:13.458Z,15.78
2018-09-26T19:57:43.855Z,15.75
2018-09-26T20:00:14.470Z,15.76
2018-09-26T20:02:45.082Z,15.82
2018-09-26T20:05:14.954Z,15.76
2018-09-26T20:07:45.696Z,15.74
2018-09-26T20:10:16.656Z,15.74
2018-09-26T20:12:46.100Z,15.71
2018-09-26T20:15:16.186Z,15.71
2018-09-26T20:17:46.167Z,15.71
2018-09-26T20:20:16.076Z,15.76
2018-09-26T20:22:45.283Z,15.71
2018-09-26T20:25:15.330Z,15.69
2018-09-26T20:27:46.078Z,15.70
2018-09-26T20:30:19.422Z,15.70
2018-09-26T20:32:51.376Z,15.75
2018-09-26T20:35:20.890Z,15.73
2018-09-26T20:37:50.236Z,15.75
2018-09-26T20:40:20.626Z,15.71
2018-09-26T20:42:50.947Z,15.70
2018-09-26T20:45:22.399Z,15.68
2018-09-26T20:47:53.640Z,15.65
2018-09-26T20:50:23.147Z,15.71
2018-09-26T20:52:52.613Z,15.67
2018-09-26T20:55:22.990Z,15.66
2018-09-26T20:57:53.333Z,15.67
2018-09-26T21:00:25.982Z,15.74
2018-09-26T21:02:57.235Z,15.69
2018-09-26T21:05:32.151Z,15.66
2018-09-26T21:08:02.778Z,15.64
2018-09-26T21:10:32.974Z,15.64
2018-09-26T21:13:06.203Z,15.64
2018-09-26T21:15:36.423Z,15.60
2018-09-26T21:18:07.097Z,15.58
2018-09-26T21:20:37.342Z,15.59
2018-09-26T21:23:07.317Z,15.55
2018-09-26T21:25:37.863Z,15.59
2018-09-26T21:28:08.075Z,15.54
2018-09-26T21:30:37.644Z,15.51
2018-09-26T21:33:07.699Z,15.49
2018-09-26T21:35:38.598Z,15.50
2018-09-26T21:38:08.737Z,15.46
2018-09-26T21:40:39.341Z,15.44
2018-09-26T21:43:09.380Z,15.41
2018-09-26T21:45:42.300Z,15.40
2018-09-26T21:48:12.632Z,15.41
2018-09-26T21:50:43.968Z,15.39
2018-09-26T21:53:16.357Z,15.37
2018-09-26T21:55:46.596Z,15.39
2018-09-26T21:58:17.304Z,15.39
2018-09-26T22:00:53.297Z,15.38
2018-09-26T22:03:24.418Z,15.39
2018-09-26T22:05:54.631Z,15.39
2018-09-26T22:08:24.118Z,15.38
2018-09-26T22:11:07.211Z,15.43
2018-09-26T22:17:02.692Z,15.42
2018-09-26T22:19:33.176Z,15.42
2018-09-26T22:22:05.849Z,15.41
2018-09-26T22:24:37.073Z,15.45
2018-09-26T22:27:08.377Z,15.44
2018-09-26T22:29:38.370Z,15.45
2018-09-26T22:32:08.355Z,15.47
2018-09-26T22:34:38.059Z,15.48
2018-09-26T22:37:08.314Z,15.53
2018-09-26T22:39:39.595Z,15.50
2018-09-26T22:42:09.495Z,15.53
2018-09-26T22:44:40.535Z,15.53
2018-09-26T22:47:10.409Z,15.52
2018-09-26T22:49:40.427Z,15.51
2018-09-26T22:52:10.601Z,15.53
2018-09-26T22:54:40.398Z,15.50
2018-09-26T22:57:11.189Z,15.53
2018-09-26T22:59:40.983Z,15.54
2018-09-26T23:02:12.285Z,15.58
2018-09-26T23:04:43.676Z,15.53
2018-09-26T23:07:15.162Z,15.52
2018-09-26T23:09:45.200Z,15.53
2018-09-26T23:12:17.160Z,15.50
2018-09-26T23:14:48.744Z,15.48
2018-09-26T23:17:19.899Z,15.45
2018-09-26T23:19:50.528Z,15.45
2018-09-26T23:22:21.459Z,15.44
2018-09-26T23:24:52.611Z,15.42
2018-09-26T23:27:23.236Z,15.39
2018-09-26T23:29:54.255Z,15.40
2018-09-26T23:32:25.952Z,15.39
2018-09-26T23:34:56.284Z,15.36
2018-09-26T23:37:26.767Z,15.34
2018-09-26T23:39:58.632Z,15.32
2018-09-26T23:42:29.586Z,15.31
2018-09-26T23:45:00.255Z,15.33
2018-09-26T23:47:30.801Z,15.32
2018-09-26T23:50:00.985Z,15.29
2018-09-26T23:52:30.806Z,15.31
2018-09-26T23:55:01.119Z,15.27
2018-09-26T23:57:31.208Z,15.26
